Matozinhos, Brazil
Current Conditions -  °F | °C
As of 10:00 PM on Friday 21 Nov 2014 (Local Time) from SBLS Reporting Station
Clear Clear  
Wind Chill: 77°   Ceiling: Unl
Heat Index: 79°   Visibility: 6mi
Dew Point: 59°   Wind: 6mph
Humidity: 54%   Direction: 120°ESE
Pressure: 30.06"   Gusts: NA
Location:  19.56°S, 44.08°W
Report Text: SBLS 220000Z 12005KT CAVOK 25/15 Q1018
Loading
Personal Weather Stations






























Interactive Weather Map New forecast layout! Learn more

10-Day Weather Forecast

Advertisements
Track Severe Weather on mobile